Decoded Metar for OMAA (ABU DHABI in UNITED ARAB EMIRATES) (IATA:AUH) | Meteo·Mobile Aviation Weather
aviador You're here:

OMAA Decoded Metar

ABU DHABI in UNITED ARAB EMIRATES
Report Time2018-08-21 12:00:00
UTC Time2018-08-21 12:11:25
Flight Rules mvfr MVFR
Wind320° at 16 kt
W.Decomp.*RWY 31: 15.8 kt HW 2.5 kt RCW
W.Rank320° ranks 3
Current wind is above 320° avg. (10.3)
Visibility7000 m
Phenomena:N/A
Clouds:N/A
Expected CloudBase > 4,000 ft AGL from Temp-Dew spread
CeilingNone
Temp38°C (ISA +23)
Dew Point28°C (57% RH)
Heat Index52.9°C
QNH0996 hPa
Density Alt3,770 ft
Elevation89 ft
Report Wrong Elevation
Raw Report
METAR OMAA 211200Z 32016KT 7000 NSC 38/28 Q0996 NOSIG=

Extra information for OMAA:More info

Metar Taf Metar & Taf Last 4 Metars F.Rules Stats Wind Profile Meteogram Temp Stats Airport Information Weather charts Add Link Nearby VenuesMetar ALERT Operation Metar Decoded Social comments